Terminal Aerodrome Forecast
Issued by NWS

Home | Current Version | Previous Version | Text Only | Print | Product List | Glossary On
Versions: 1 2 3 4 5 6 7 8 9 10 11 12 13 14 15 16 17 18 19 20 21 22 23
000
FTUS45 KBOU 210156 AAA
TAFBJC
TAF AMD
KBJC 210156Z 2102/2124 12005KT P6SM FEW120 SCT220
     FM210700 24009KT P6SM SCT120 SCT220
     FM211000 26020G30KT P6SM FEW220
     FM211500 27026G35KT P6SM FEW220=

USA.gov is the U.S. government's official web portal to all federal, state and local government web resources and services.